sensor_id;sensor_type;location;lat;lon;timestamp;pressure;altitude;pressure_sealevel;temperature;humidity
25350;BME280;13302;48.796;11.978;2023-04-03T00:00:46;97444.28;;;7.14;31.55
25350;BME280;13302;48.796;11.978;2023-04-03T00:03:33;97446.19;;;7.14;31.54
25350;BME280;13302;48.796;11.978;2023-04-03T00:06:22;97446.53;;;7.12;31.84
25350;BME280;13302;48.796;11.978;2023-04-03T00:09:10;97445.38;;;7.13;31.78
25350;BME280;13302;48.796;11.978;2023-04-03T00:11:56;97452.84;;;7.13;31.72
25350;BME280;13302;48.796;11.978;2023-04-03T00:14:44;97457.19;;;7.14;32.00
25350;BME280;13302;48.796;11.978;2023-04-03T00:17:31;97457.72;;;7.16;31.70
25350;BME280;13302;48.796;11.978;2023-04-03T00:20:18;97455.59;;;7.13;31.69
25350;BME280;13302;48.796;11.978;2023-04-03T00:23:05;97447.34;;;7.13;31.78
25350;BME280;13302;48.796;11.978;2023-04-03T00:25:52;97452.53;;;7.14;32.01
25350;BME280;13302;48.796;11.978;2023-04-03T00:28:39;97448.47;;;7.12;31.90
25350;BME280;13302;48.796;11.978;2023-04-03T00:31:26;97452.84;;;7.13;31.74
25350;BME280;13302;48.796;11.978;2023-04-03T00:34:13;97452.03;;;7.12;31.83
25350;BME280;13302;48.796;11.978;2023-04-03T00:37:00;97451.41;;;7.15;31.80
25350;BME280;13302;48.796;11.978;2023-04-03T00:39:47;97448.47;;;7.12;31.82
25350;BME280;13302;48.796;11.978;2023-04-03T00:42:36;97451.22;;;7.12;31.85
25350;BME280;13302;48.796;11.978;2023-04-03T00:45:50;97453.47;;;7.10;31.92
25350;BME280;13302;48.796;11.978;2023-04-03T00:48:43;97456.72;;;7.12;31.82
25350;BME280;13302;48.796;11.978;2023-04-03T00:51:32;97462.41;;;7.15;31.74
25350;BME280;13302;48.796;11.978;2023-04-03T00:54:19;97450.59;;;7.15;31.95
25350;BME280;13302;48.796;11.978;2023-04-03T00:57:07;97455.59;;;7.13;31.97
25350;BME280;13302;48.796;11.978;2023-04-03T00:59:59;97449.28;;;7.12;32.02
25350;BME280;13302;48.796;11.978;2023-04-03T01:02:47;97449.28;;;7.12;31.83
25350;BME280;13302;48.796;11.978;2023-04-03T01:05:35;97440.53;;;7.10;31.78
25350;BME280;13302;48.796;11.978;2023-04-03T01:08:22;97448.47;;;7.12;31.79
25350;BME280;13302;48.796;11.978;2023-04-03T01:11:09;97452.34;;;7.11;31.93
25350;BME280;13302;48.796;11.978;2023-04-03T01:13:56;97450.41;;;7.11;31.96
25350;BME280;13302;48.796;11.978;2023-04-03T01:16:54;97448.78;;;7.10;32.07
25350;BME280;13302;48.796;11.978;2023-04-03T01:19:44;97453.47;;;7.10;32.02
25350;BME280;13302;48.796;11.978;2023-04-03T01:23:03;97453.47;;;7.10;31.99
25350;BME280;13302;48.796;11.978;2023-04-03T01:25:55;97454.59;;;7.09;31.84
25350;BME280;13302;48.796;11.978;2023-04-03T01:28:43;97458.94;;;7.10;32.09
25350;BME280;13302;48.796;11.978;2023-04-03T01:31:48;97462.84;;;7.09;31.97
25350;BME280;13302;48.796;11.978;2023-04-03T01:34:35;97466.72;;;7.08;31.98
25350;BME280;13302;48.796;11.978;2023-04-03T01:37:22;97460.72;;;7.06;32.14
25350;BME280;13302;48.796;11.978;2023-04-03T01:40:10;97458.28;;;7.04;32.08
25350;BME280;13302;48.796;11.978;2023-04-03T01:42:58;97462.97;;;7.04;32.10
25350;BME280;13302;48.796;11.978;2023-04-03T01:45:45;97457.16;;;7.05;32.14
25350;BME280;13302;48.796;11.978;2023-04-03T01:48:33;97467.03;;;7.06;32.17
25350;BME280;13302;48.796;11.978;2023-04-03T01:51:20;97468.66;;;7.07;32.14
25350;BME280;13302;48.796;11.978;2023-04-03T01:54:07;97469.47;;;7.08;32.26
25350;BME280;13302;48.796;11.978;2023-04-03T01:56:54;97470.09;;;7.05;32.18
25350;BME280;13302;48.796;11.978;2023-04-03T01:59:42;97463.28;;;7.02;32.20
25350;BME280;13302;48.796;11.978;2023-04-03T02:02:29;97468.78;;;7.02;32.30
25350;BME280;13302;48.796;11.978;2023-04-03T02:05:16;97471.53;;;7.02;32.26
25350;BME280;13302;48.796;11.978;2023-04-03T02:08:03;97472.34;;;7.03;32.16
25350;BME280;13302;48.796;11.978;2023-04-03T02:10:51;97470.53;;;6.98;32.34
25350;BME280;13302;48.796;11.978;2023-04-03T02:13:38;97476.34;;;6.97;32.33
25350;BME280;13302;48.796;11.978;2023-04-03T02:16:25;97468.09;;;6.97;32.46
25350;BME280;13302;48.796;11.978;2023-04-03T02:19:12;97479.09;;;6.97;32.23
25350;BME280;13302;48.796;11.978;2023-04-03T02:21:59;97472.47;;;6.98;32.44
25350;BME280;13302;48.796;11.978;2023-04-03T02:24:46;97473.28;;;6.98;32.41
25350;BME280;13302;48.796;11.978;2023-04-03T02:27:33;97467.78;;;6.98;32.34
25350;BME280;13302;48.796;11.978;2023-04-03T02:30:22;97467.78;;;6.98;32.51
25350;BME280;13302;48.796;11.978;2023-04-03T02:33:09;97465.84;;;6.99;32.23
25350;BME280;13302;48.796;11.978;2023-04-03T02:35:58;97471.63;;;6.97;32.36
25350;BME280;13302;48.796;11.978;2023-04-03T02:38:45;97471.34;;;6.99;32.35
25350;BME280;13302;48.796;11.978;2023-04-03T02:41:32;97477.97;;;6.98;32.28
25350;BME280;13302;48.796;11.978;2023-04-03T02:44:27;97465.66;;;6.95;32.24
25350;BME280;13302;48.796;11.978;2023-04-03T02:47:14;97462.41;;;6.93;32.33
25350;BME280;13302;48.796;11.978;2023-04-03T02:50:01;97473.72;;;6.91;32.33
25350;BME280;13302;48.796;11.978;2023-04-03T02:52:48;97465.47;;;6.91;32.40
25350;BME280;13302;48.796;11.978;2023-04-03T02:55:35;97461.09;;;6.90;32.44
25350;BME280;13302;48.796;11.978;2023-04-03T02:58:22;97475.13;;;6.89;32.33
25350;BME280;13302;48.796;11.978;2023-04-03T03:01:12;97469.97;;;6.87;32.45
25350;BME280;13302;48.796;11.978;2023-04-03T03:04:00;97470.78;;;6.88;32.20
25350;BME280;13302;48.796;11.978;2023-04-03T03:06:47;97467.53;;;6.86;32.42
25350;BME280;13302;48.796;11.978;2023-04-03T03:09:34;97473.31;;;6.84;32.37
25350;BME280;13302;48.796;11.978;2023-04-03T03:12:21;97472.53;;;6.84;32.51
25350;BME280;13302;48.796;11.978;2023-04-03T03:15:10;97466.53;;;6.82;32.59
25350;BME280;13302;48.796;11.978;2023-04-03T03:17:57;97471.53;;;6.80;32.47
25350;BME280;13302;48.796;11.978;2023-04-03T03:20:45;97468.56;;;6.76;32.48
25350;BME280;13302;48.796;11.978;2023-04-03T03:23:33;97466.16;;;6.75;32.58
25350;BME280;13302;48.796;11.978;2023-04-03T03:26:20;97458.72;;;6.75;32.80
25350;BME280;13302;48.796;11.978;2023-04-03T03:29:07;97469.38;;;6.77;32.74
25350;BME280;13302;48.796;11.978;2023-04-03T03:31:54;97459.22;;;6.77;32.65
25350;BME280;13302;48.796;11.978;2023-04-03T03:34:41;97469.56;;;6.80;32.58
25350;BME280;13302;48.796;11.978;2023-04-03T03:37:28;97471.53;;;6.80;32.73
25350;BME280;13302;48.796;11.978;2023-04-03T03:40:16;97469.91;;;6.79;32.67
25350;BME280;13302;48.796;11.978;2023-04-03T03:43:04;97468.28;;;6.78;32.67
25350;BME280;13302;48.796;11.978;2023-04-03T03:45:52;97472.97;;;6.77;32.71
25350;BME280;13302;48.796;11.978;2023-04-03T03:48:39;97467.47;;;6.77;32.70
25350;BME280;13302;48.796;11.978;2023-04-03T03:51:26;97472.47;;;6.75;32.85
25350;BME280;13302;48.796;11.978;2023-04-03T03:54:14;97462.59;;;6.74;32.86
25350;BME280;13302;48.796;11.978;2023-04-03T03:57:01;97476.16;;;6.71;32.84
25350;BME280;13302;48.796;11.978;2023-04-03T03:59:50;97463.22;;;6.71;32.97
25350;BME280;13302;48.796;11.978;2023-04-03T04:02:38;97476.97;;;6.71;32.84
25350;BME280;13302;48.796;11.978;2023-04-03T04:05:26;97478.09;;;6.70;32.92
25350;BME280;13302;48.796;11.978;2023-04-03T04:08:14;97481.94;;;6.69;32.74
25350;BME280;13302;48.796;11.978;2023-04-03T04:11:02;97479.19;;;6.69;32.82
25350;BME280;13302;48.796;11.978;2023-04-03T04:13:49;97480.31;;;6.68;32.82
25350;BME280;13302;48.796;11.978;2023-04-03T04:16:38;97476.25;;;6.66;32.92
25350;BME280;13302;48.796;11.978;2023-04-03T04:19:31;97478.19;;;6.65;33.00
25350;BME280;13302;48.796;11.978;2023-04-03T04:22:20;97479.81;;;6.66;32.97
25350;BME280;13302;48.796;11.978;2023-04-03T04:25:07;97479.81;;;6.66;32.83
25350;BME280;13302;48.796;11.978;2023-04-03T04:27:55;97488.38;;;6.65;33.04
25350;BME280;13302;48.796;11.978;2023-04-03T04:30:43;97480.13;;;6.65;32.96
25350;BME280;13302;48.796;11.978;2023-04-03T04:33:30;97482.38;;;6.63;32.97
25350;BME280;13302;48.796;11.978;2023-04-03T04:36:19;97485.44;;;6.61;32.77
25350;BME280;13302;48.796;11.978;2023-04-03T04:39:08;97487.06;;;6.62;32.97
25350;BME280;13302;48.796;11.978;2023-04-03T04:41:55;97487.06;;;6.62;32.92
25350;BME280;13302;48.796;11.978;2023-04-03T04:44:44;97487.56;;;6.64;32.86
25350;BME280;13302;48.796;11.978;2023-04-03T04:47:33;97485.13;;;6.63;32.98
25350;BME280;13302;48.796;11.978;2023-04-03T04:50:20;97480.75;;;6.62;32.99
25350;BME280;13302;48.796;11.978;2023-04-03T04:53:09;97482.50;;;6.58;32.93
25350;BME280;13302;48.796;11.978;2023-04-03T04:55:56;97486.06;;;6.58;33.03
25350;BME280;13302;48.796;11.978;2023-04-03T04:58:43;97486.53;;;6.60;32.92
25350;BME280;13302;48.796;11.978;2023-04-03T05:01:30;97481.06;;;6.60;33.01
25350;BME280;13302;48.796;11.978;2023-04-03T05:04:26;97488.50;;;6.60;32.95
25350;BME280;13302;48.796;11.978;2023-04-03T05:07:19;97486.06;;;6.58;32.99
25350;BME280;13302;48.796;11.978;2023-04-03T05:10:07;97484.44;;;6.57;33.03
25350;BME280;13302;48.796;11.978;2023-04-03T05:12:56;97491.66;;;6.53;32.98
25350;BME280;13302;48.796;11.978;2023-04-03T05:15:43;97490.56;;;6.54;33.07
25350;BME280;13302;48.796;11.978;2023-04-03T05:18:30;97496.84;;;6.55;33.08
25350;BME280;13302;48.796;11.978;2023-04-03T05:21:20;97497.97;;;6.54;33.25
25350;BME280;13302;48.796;11.978;2023-04-03T05:24:11;97501.53;;;6.54;33.12
25350;BME280;13302;48.796;11.978;2023-04-03T05:27:00;97495.72;;;6.56;33.11
25350;BME280;13302;48.796;11.978;2023-04-03T05:29:48;97497.97;;;6.54;33.23
25350;BME280;13302;48.796;11.978;2023-04-03T05:32:40;97495.72;;;6.56;33.05
25350;BME280;13302;48.796;11.978;2023-04-03T05:35:53;97494.72;;;6.52;33.09
25350;BME280;13302;48.796;11.978;2023-04-03T05:38:46;97497.44;;;6.52;33.29
25350;BME280;13302;48.796;11.978;2023-04-03T05:41:34;97501.34;;;6.51;33.07
25350;BME280;13302;48.796;11.978;2023-04-03T05:44:21;97503.09;;;6.47;33.46
25350;BME280;13302;48.796;11.978;2023-04-03T05:47:10;97504.38;;;6.49;33.20
25350;BME280;13302;48.796;11.978;2023-04-03T05:49:57;97506.31;;;6.49;33.17
25350;BME280;13302;48.796;11.978;2023-04-03T05:52:46;97499.81;;;6.44;33.02
25350;BME280;13302;48.796;11.978;2023-04-03T05:55:35;97506.94;;;6.45;33.29
25350;BME280;13302;48.796;11.978;2023-04-03T05:58:23;97507.13;;;6.49;33.38
25350;BME280;13302;48.796;11.978;2023-04-03T06:01:11;97505.69;;;6.52;33.26
25350;BME280;13302;48.796;11.978;2023-04-03T06:03:59;97503.28;;;6.50;33.27
25350;BME280;13302;48.796;11.978;2023-04-03T06:06:56;97509.25;;;6.52;33.27
25350;BME280;13302;48.796;11.978;2023-04-03T06:09:45;97516.09;;;6.55;33.19
25350;BME280;13302;48.796;11.978;2023-04-03T06:12:33;97513.34;;;6.55;33.24
25350;BME280;13302;48.796;11.978;2023-04-03T06:15:20;97509.66;;;6.59;33.37
25350;BME280;13302;48.796;11.978;2023-04-03T06:18:07;97510.97;;;6.62;33.29
25350;BME280;13302;48.796;11.978;2023-04-03T06:20:55;97516.75;;;6.60;33.47
25350;BME280;13302;48.796;11.978;2023-04-03T06:23:42;97514.25;;;6.64;33.42
25350;BME280;13302;48.796;11.978;2023-04-03T06:26:29;97524.91;;;6.65;33.32
25350;BME280;13302;48.796;11.978;2023-04-03T06:29:17;97524.59;;;6.67;33.34
25350;BME280;13302;48.796;11.978;2023-04-03T06:32:04;97526.72;;;6.70;33.22
25350;BME280;13302;48.796;11.978;2023-04-03T06:34:51;97522.84;;;6.71;33.22
25350;BME280;13302;48.796;11.978;2023-04-03T06:37:40;97523.69;;;6.71;33.57
25350;BME280;13302;48.796;11.978;2023-04-03T06:40:27;97521.41;;;6.73;33.30
25350;BME280;13302;48.796;11.978;2023-04-03T06:43:14;97533.75;;;6.76;33.26
25350;BME280;13302;48.796;11.978;2023-04-03T06:46:01;97529.03;;;6.76;33.38
25350;BME280;13302;48.796;11.978;2023-04-03T06:48:49;97533.13;;;6.79;33.17
25350;BME280;13302;48.796;11.978;2023-04-03T06:51:36;97530.84;;;6.81;33.17
25350;BME280;13302;48.796;11.978;2023-04-03T06:54:23;97537.50;;;6.80;33.48
25350;BME280;13302;48.796;11.978;2023-04-03T06:57:10;97534.41;;;6.81;33.25
25350;BME280;13302;48.796;11.978;2023-04-03T06:59:57;97542.84;;;6.85;33.21
25350;BME280;13302;48.796;11.978;2023-04-03T07:02:44;97546.59;;;6.89;33.02
25350;BME280;13302;48.796;11.978;2023-04-03T07:05:32;97550.50;;;6.88;33.09
25350;BME280;13302;48.796;11.978;2023-04-03T07:08:19;97548.75;;;6.92;33.30
25350;BME280;13302;48.796;11.978;2023-04-03T07:11:06;97549.06;;;6.90;33.10
25350;BME280;13302;48.796;11.978;2023-04-03T07:13:53;97560.03;;;6.90;33.06
25350;BME280;13302;48.796;11.978;2023-04-03T07:16:40;97553.91;;;6.93;33.04
25350;BME280;13302;48.796;11.978;2023-04-03T07:19:28;97554.44;;;6.96;33.04
25350;BME280;13302;48.796;11.978;2023-04-03T07:22:16;97565.44;;;6.96;32.83
25350;BME280;13302;48.796;11.978;2023-04-03T07:25:04;97564.31;;;6.97;33.12
25350;BME280;13302;48.796;11.978;2023-04-03T07:27:54;97569.00;;;6.96;32.96
25350;BME280;13302;48.796;11.978;2023-04-03T07:30:45;97576.91;;;6.98;32.91
25350;BME280;13302;48.796;11.978;2023-04-03T07:33:33;97576.91;;;6.98;32.53
25350;BME280;13302;48.796;11.978;2023-04-03T07:36:22;97580.28;;;6.95;32.70
25350;BME280;13302;48.796;11.978;2023-04-03T07:39:09;97578.84;;;6.97;32.45
25350;BME280;13302;48.796;11.978;2023-04-03T07:41:58;97585.16;;;6.98;32.58
25350;BME280;13302;48.796;11.978;2023-04-03T07:44:45;97578.06;;;6.97;32.63
25350;BME280;13302;48.796;11.978;2023-04-03T07:47:32;97585.34;;;7.01;32.40
25350;BME280;13302;48.796;11.978;2023-04-03T07:50:19;97582.59;;;7.01;32.23
25350;BME280;13302;48.796;11.978;2023-04-03T07:53:06;97588.44;;;7.00;32.11
25350;BME280;13302;48.796;11.978;2023-04-03T07:55:56;97592.28;;;6.99;32.10
25350;BME280;13302;48.796;11.978;2023-04-03T07:58:43;97596.03;;;7.03;32.16
25350;BME280;13302;48.796;11.978;2023-04-03T08:01:30;97597.34;;;7.05;31.98
25350;BME280;13302;48.796;11.978;2023-04-03T08:04:19;97596.75;;;7.08;32.28
25350;BME280;13302;48.796;11.978;2023-04-03T08:07:06;97591.44;;;7.12;31.86
25350;BME280;13302;48.796;11.978;2023-04-03T08:09:53;97592.44;;;7.16;31.84
25350;BME280;13302;48.796;11.978;2023-04-03T08:12:41;97594.19;;;7.12;31.70
25350;BME280;13302;48.796;11.978;2023-04-03T08:15:30;97594.81;;;7.09;31.84
25350;BME280;13302;48.796;11.978;2023-04-03T08:18:17;97590.91;;;7.10;31.84
25350;BME280;13302;48.796;11.978;2023-04-03T08:21:10;97597.44;;;7.14;31.83
25350;BME280;13302;48.796;11.978;2023-04-03T08:23:58;97604.75;;;7.18;31.89
25350;BME280;13302;48.796;11.978;2023-04-03T08:26:45;97591.50;;;7.20;31.83
25350;BME280;13302;48.796;11.978;2023-04-03T08:29:32;97586.00;;;7.20;31.57
25350;BME280;13302;48.796;11.978;2023-04-03T08:32:20;97591.41;;;7.25;31.64
25350;BME280;13302;48.796;11.978;2023-04-03T08:35:08;97595.94;;;7.30;31.70
25350;BME280;13302;48.796;11.978;2023-04-03T08:37:55;97595.84;;;7.35;31.44
25350;BME280;13302;48.796;11.978;2023-04-03T08:40:43;97598.91;;;7.33;31.43
25350;BME280;13302;48.796;11.978;2023-04-03T08:47:02;97599.13;;;7.37;31.17
25350;BME280;13302;48.796;11.978;2023-04-03T08:50:00;97603.47;;;7.38;31.08
25350;BME280;13302;48.796;11.978;2023-04-03T08:52:51;97602.06;;;7.41;30.84
25350;BME280;13302;48.796;11.978;2023-04-03T08:55:43;97608.38;;;7.41;31.12
25350;BME280;13302;48.796;11.978;2023-04-03T08:58:40;97609.97;;;7.42;30.83
25350;BME280;13302;48.796;11.978;2023-04-03T09:01:36;97609.38;;;7.45;31.08
25350;BME280;13302;48.796;11.978;2023-04-03T09:04:25;97614.06;;;7.45;31.07
25350;BME280;13302;48.796;11.978;2023-04-03T09:07:20;97617.28;;;7.47;30.91
25350;BME280;13302;48.796;11.978;2023-04-03T09:10:12;97620.22;;;7.50;30.76
25350;BME280;13302;48.796;11.978;2023-04-03T09:13:03;97618.28;;;7.51;30.73
25350;BME280;13302;48.796;11.978;2023-04-03T09:15:53;97624.31;;;7.53;30.72
25350;BME280;13302;48.796;11.978;2023-04-03T09:18:45;97619.09;;;7.51;30.80
25350;BME280;13302;48.796;11.978;2023-04-03T09:21:38;97628.38;;;7.55;30.58
25350;BME280;13302;48.796;11.978;2023-04-03T09:24:31;97628.56;;;7.59;30.32
25350;BME280;13302;48.796;11.978;2023-04-03T09:27:18;97631.00;;;7.60;30.07
25350;BME280;13302;48.796;11.978;2023-04-03T09:30:05;97631.81;;;7.61;30.10
25350;BME280;13302;48.796;11.978;2023-04-03T09:32:56;97628.75;;;7.62;29.94
25350;BME280;13302;48.796;11.978;2023-04-03T09:35:43;97621.50;;;7.66;29.93
25350;BME280;13302;48.796;11.978;2023-04-03T09:38:34;97626.19;;;7.66;29.58
25350;BME280;13302;48.796;11.978;2023-04-03T09:41:22;97615.03;;;7.71;29.53
25350;BME280;13302;48.796;11.978;2023-04-03T09:44:27;97621.06;;;7.73;29.60
25350;BME280;13302;48.796;11.978;2023-04-03T09:47:30;97621.53;;;7.75;29.62
25350;BME280;13302;48.796;11.978;2023-04-03T09:50:20;97611.34;;;7.75;29.38
25350;BME280;13302;48.796;11.978;2023-04-03T09:53:27;97614.28;;;7.79;29.29
25350;BME280;13302;48.796;11.978;2023-04-03T10:02:03;97609.03;;;8.00;28.83
25350;BME280;13302;48.796;11.978;2023-04-03T10:04:50;97613.00;;;8.07;28.59
25350;BME280;13302;48.796;11.978;2023-04-03T10:08:28;97609.47;;;8.15;28.82
25350;BME280;13302;48.796;11.978;2023-04-03T10:11:16;97603.66;;;8.25;28.29
25350;BME280;13302;48.796;11.978;2023-04-03T10:14:16;97596.72;;;8.28;28.23
25350;BME280;13302;48.796;11.978;2023-04-03T10:17:41;97601.72;;;8.26;27.84
25350;BME280;13302;48.796;11.978;2023-04-03T10:20:44;97605.00;;;8.28;27.90
25350;BME280;13302;48.796;11.978;2023-04-03T10:23:42;97599.94;;;8.21;26.92
25350;BME280;13302;48.796;11.978;2023-04-03T10:29:40;97607.25;;;8.26;27.31
25350;BME280;13302;48.796;11.978;2023-04-03T10:32:40;97607.25;;;8.26;27.40
25350;BME280;13302;48.796;11.978;2023-04-03T10:35:39;97609.19;;;8.25;27.22
25350;BME280;13302;48.796;11.978;2023-04-03T10:42:08;97605.59;;;8.25;26.86
25350;BME280;13302;48.796;11.978;2023-04-03T10:48:22;97589.25;;;8.28;26.87
25350;BME280;13302;48.796;11.978;2023-04-03T10:51:28;97591.56;;;8.35;27.15
25350;BME280;13302;48.796;11.978;2023-04-03T10:57:10;97592.63;;;8.56;26.77
25350;BME280;13302;48.796;11.978;2023-04-03T11:00:04;97591.84;;;8.64;26.49
25350;BME280;13302;48.796;11.978;2023-04-03T11:02:56;97594.94;;;8.71;26.19
25350;BME280;13302;48.796;11.978;2023-04-03T11:05:47;97582.94;;;8.76;26.16
25350;BME280;13302;48.796;11.978;2023-04-03T11:08:44;97593.97;;;8.76;26.12
25350;BME280;13302;48.796;11.978;2023-04-03T11:11:38;97587.16;;;8.82;25.87
25350;BME280;13302;48.796;11.978;2023-04-03T11:14:35;97587.97;;;8.83;25.98
25350;BME280;13302;48.796;11.978;2023-04-03T11:17:39;97584.91;;;8.84;25.92
25350;BME280;13302;48.796;11.978;2023-04-03T11:20:32;97582.63;;;8.95;25.78
25350;BME280;13302;48.796;11.978;2023-04-03T11:23:28;97583.00;;;9.02;26.10
25350;BME280;13302;48.796;11.978;2023-04-03T11:26:36;97570.19;;;9.06;25.51
25350;BME280;13302;48.796;11.978;2023-04-03T11:29:31;97574.06;;;9.13;25.45
25350;BME280;13302;48.796;11.978;2023-04-03T11:35:29;97571.78;;;9.24;25.36
25350;BME280;13302;48.796;11.978;2023-04-03T11:38:25;97565.13;;;9.25;24.96
25350;BME280;13302;48.796;11.978;2023-04-03T11:41:13;97565.13;;;9.25;24.59
25350;BME280;13302;48.796;11.978;2023-04-03T11:44:06;97567.09;;;9.25;24.26
25350;BME280;13302;48.796;11.978;2023-04-03T11:47:47;97558.00;;;9.24;24.52
25350;BME280;13302;48.796;11.978;2023-04-03T11:50:39;97562.06;;;9.18;24.14
25350;BME280;13302;48.796;11.978;2023-04-03T11:53:36;97551.03;;;9.18;23.99
25350;BME280;13302;48.796;11.978;2023-04-03T12:01:58;97547.09;;;9.10;23.97
25350;BME280;13302;48.796;11.978;2023-04-03T12:05:24;97551.19;;;9.04;24.12
25350;BME280;13302;48.796;11.978;2023-04-03T12:11:30;97552.81;;;9.05;24.04
25350;BME280;13302;48.796;11.978;2023-04-03T12:14:18;97551.19;;;9.04;23.82
25350;BME280;13302;48.796;11.978;2023-04-03T12:17:20;97557.00;;;8.94;23.25
25350;BME280;13302;48.796;11.978;2023-04-03T12:20:52;97555.41;;;8.93;23.59
25350;BME280;13302;48.796;11.978;2023-04-03T12:27:03;97538.19;;;8.88;23.53
25350;BME280;13302;48.796;11.978;2023-04-03T12:32:55;97546.63;;;8.91;23.59
25350;BME280;13302;48.796;11.978;2023-04-03T12:36:23;97545.97;;;8.94;23.74
25350;BME280;13302;48.796;11.978;2023-04-03T12:42:37;97549.72;;;8.98;23.24
25350;BME280;13302;48.796;11.978;2023-04-03T12:45:28;97542.25;;;8.99;22.99
25350;BME280;13302;48.796;11.978;2023-04-03T12:48:18;97532.84;;;9.00;23.49
25350;BME280;13302;48.796;11.978;2023-04-03T12:51:08;97539.19;;;9.00;23.62
25350;BME280;13302;48.796;11.978;2023-04-03T12:54:01;97531.72;;;9.01;23.59
25350;BME280;13302;48.796;11.978;2023-04-03T12:56:49;97534.47;;;9.01;23.14
25350;BME280;13302;48.796;11.978;2023-04-03T12:59:37;97528.97;;;9.01;23.10
25350;BME280;13302;48.796;11.978;2023-04-03T13:02:28;97537.72;;;9.03;23.02
25350;BME280;13302;48.796;11.978;2023-04-03T13:05:18;97532.84;;;9.00;23.08
25350;BME280;13302;48.796;11.978;2023-04-03T13:08:10;97529.28;;;8.99;22.88
25350;BME280;13302;48.796;11.978;2023-04-03T13:14:04;97517.28;;;9.04;23.11
25350;BME280;13302;48.796;11.978;2023-04-03T13:19:42;97530.09;;;9.08;22.35
25350;BME280;13302;48.796;11.978;2023-04-03T13:22:33;97524.06;;;9.06;22.70
25350;BME280;13302;48.796;11.978;2023-04-03T13:25:28;97524.41;;;9.05;22.61
25350;BME280;13302;48.796;11.978;2023-04-03T13:28:22;97526.84;;;9.06;22.75
25350;BME280;13302;48.796;11.978;2023-04-03T13:34:11;97521.50;;;9.10;22.57
25350;BME280;13302;48.796;11.978;2023-04-03T13:37:00;97521.50;;;9.10;23.14
25350;BME280;13302;48.796;11.978;2023-04-03T13:40:31;97520.84;;;9.13;22.97
25350;BME280;13302;48.796;11.978;2023-04-03T13:43:21;97518.09;;;9.13;22.91
25350;BME280;13302;48.796;11.978;2023-04-03T13:48:57;97530.09;;;9.17;22.42
25350;BME280;13302;48.796;11.978;2023-04-03T13:51:44;97522.63;;;9.17;22.90
25350;BME280;13302;48.796;11.978;2023-04-03T13:54:37;97522.13;;;9.15;22.61
25350;BME280;13302;48.796;11.978;2023-04-03T13:57:25;97530.09;;;9.17;22.85
25350;BME280;13302;48.796;11.978;2023-04-03T14:00:28;97529.59;;;9.15;22.30
25350;BME280;13302;48.796;11.978;2023-04-03T14:03:23;97524.88;;;9.15;22.42
25350;BME280;13302;48.796;11.978;2023-04-03T14:06:13;97522.47;;;9.14;22.11
25350;BME280;13302;48.796;11.978;2023-04-03T14:09:01;97527.19;;;9.13;22.52
25350;BME280;13302;48.796;11.978;2023-04-03T14:11:49;97528.00;;;9.14;22.50
25350;BME280;13302;48.796;11.978;2023-04-03T14:14:39;97518.09;;;9.13;22.35
25350;BME280;13302;48.796;11.978;2023-04-03T14:17:27;97519.22;;;9.12;22.23
25350;BME280;13302;48.796;11.978;2023-04-03T14:20:21;97513.38;;;9.13;22.46
25350;BME280;13302;48.796;11.978;2023-04-03T14:23:09;97516.16;;;9.13;22.34
25350;BME280;13302;48.796;11.978;2023-04-03T14:25:59;97514.19;;;9.14;22.25
25350;BME280;13302;48.796;11.978;2023-04-03T14:28:49;97505.94;;;9.14;21.91
25350;BME280;13302;48.796;11.978;2023-04-03T14:31:36;97502.50;;;9.17;22.55
25350;BME280;13302;48.796;11.978;2023-04-03T14:34:23;97502.97;;;9.19;22.40
25350;BME280;13302;48.796;11.978;2023-04-03T14:37:19;97501.84;;;9.20;22.51
25350;BME280;13302;48.796;11.978;2023-04-03T14:40:11;97510.13;;;9.20;22.46
25350;BME280;13302;48.796;11.978;2023-04-03T14:42:59;97512.56;;;9.21;22.17
25350;BME280;13302;48.796;11.978;2023-04-03T14:45:47;97498.09;;;9.25;22.06
25350;BME280;13302;48.796;11.978;2023-04-03T14:48:34;97508.31;;;9.24;22.11
25350;BME280;13302;48.796;11.978;2023-04-03T14:51:21;97511.09;;;9.24;21.88
25350;BME280;13302;48.796;11.978;2023-04-03T14:54:18;97524.06;;;9.23;21.73
25350;BME280;13302;48.796;11.978;2023-04-03T14:57:11;97507.50;;;9.23;21.95
25350;BME280;13302;48.796;11.978;2023-04-03T14:59:59;97512.56;;;9.21;21.62
25350;BME280;13302;48.796;11.978;2023-04-03T15:02:48;97510.78;;;9.17;21.92
25350;BME280;13302;48.796;11.978;2023-04-03T15:05:36;97517.44;;;9.16;21.71
25350;BME280;13302;48.796;11.978;2023-04-03T15:08:25;97518.75;;;9.10;21.67
25350;BME280;13302;48.796;11.978;2023-04-03T15:11:14;97520.34;;;9.11;21.56
25350;BME280;13302;48.796;11.978;2023-04-03T15:14:01;97517.94;;;9.09;21.56
25350;BME280;13302;48.796;11.978;2023-04-03T15:16:48;97515.81;;;9.06;21.41
25350;BME280;13302;48.796;11.978;2023-04-03T15:19:37;97512.25;;;9.06;21.80
25350;BME280;13302;48.796;11.978;2023-04-03T15:22:24;97515.66;;;9.03;21.81
25350;BME280;13302;48.796;11.978;2023-04-03T15:25:12;97517.78;;;9.06;21.72
25350;BME280;13302;48.796;11.978;2023-04-03T15:27:59;97523.75;;;9.08;21.66
25350;BME280;13302;48.796;11.978;2023-04-03T15:30:46;97524.41;;;9.05;21.46
25350;BME280;13302;48.796;11.978;2023-04-03T15:33:35;97529.44;;;9.03;21.32
25350;BME280;13302;48.796;11.978;2023-04-03T15:36:22;97530.09;;;9.00;21.34
25350;BME280;13302;48.796;11.978;2023-04-03T15:39:15;97527.84;;;8.93;21.48
25350;BME280;13302;48.796;11.978;2023-04-03T15:42:03;97530.44;;;8.90;21.25
25350;BME280;13302;48.796;11.978;2023-04-03T15:44:53;97523.44;;;8.84;21.25
25350;BME280;13302;48.796;11.978;2023-04-03T15:47:40;97535.75;;;8.77;21.30
25350;BME280;13302;48.796;11.978;2023-04-03T15:50:28;97532.19;;;8.77;21.19
25350;BME280;13302;48.796;11.978;2023-04-03T15:53:15;97531.53;;;8.71;21.27
25350;BME280;13302;48.796;11.978;2023-04-03T15:56:02;97534.13;;;8.68;21.42
25350;BME280;13302;48.796;11.978;2023-04-03T15:58:51;97537.03;;;8.63;21.33